Time;durP1;ratioP1;P1;durP2;ratioP2;P2;SDS_P1;SDS_P2;PMS_P1;PMS_P2;Temp;Humidity;BMP_temperature;BMP_pressure;BME280_temperature;BME280_humidity;BME280_pressure;Samples;Min_cycle;Max_cycle;Signal;HPM_P1;HPM_P2
2022/08/02 00:00:18;;;;;;;1.95;0.70;;;;;21.20;101761.00;;;;5051459;28;20230;-77
2022/08/02 00:02:48;;;;;;;2.05;1.10;;;;;21.10;101753.00;;;;5051900;28;20230;-77
2022/08/02 00:05:15;;;;;;;0.95;0.70;;;;;21.20;101759.00;;;;5050905;28;20291;-77
2022/08/02 00:07:44;;;;;;;1.40;0.63;;;;;21.10;101745.00;;;;5049332;28;20666;-77
2022/08/02 00:10:12;;;;;;;1.33;0.50;;;;;21.10;101748.00;;;;5035266;28;20191;-77
2022/08/02 00:12:40;;;;;;;3.13;0.98;;;;;21.10;101744.00;;;;5051395;28;20718;-77
2022/08/02 00:15:09;;;;;;;0.90;0.60;;;;;21.10;101746.00;;;;5051795;28;20210;-77
2022/08/02 00:17:36;;;;;;;3.58;0.57;;;;;21.10;101740.00;;;;5050783;28;20215;-77
2022/08/02 00:20:05;;;;;;;2.08;0.85;;;;;21.10;101752.00;;;;5051182;28;20282;-77
2022/08/02 00:22:32;;;;;;;1.13;0.70;;;;;21.10;101745.00;;;;5051085;28;20231;-77
2022/08/02 00:25:01;;;;;;;0.60;0.50;;;;;21.10;101739.00;;;;5047386;28;20577;-77
2022/08/02 00:27:28;;;;;;;1.13;0.52;;;;;21.10;101734.00;;;;5040713;28;20662;-77
2022/08/02 00:29:55;;;;;;;1.75;0.45;;;;;21.10;101729.00;;;;5051035;28;20215;-77
2022/08/02 00:32:23;;;;;;;1.38;0.57;;;;;21.10;101728.00;;;;5050734;28;20198;-77
2022/08/02 00:34:51;;;;;;;0.93;0.52;;;;;21.10;101726.00;;;;5051365;28;20207;-77
2022/08/02 00:37:18;;;;;;;0.98;0.60;;;;;21.10;101730.00;;;;5051096;28;20574;-77
2022/08/02 00:39:46;;;;;;;2.08;0.55;;;;;21.10;101726.00;;;;5050487;28;20195;-77
2022/08/02 00:42:16;;;;;;;0.98;0.60;;;;;21.00;101723.00;;;;5049287;28;20227;-77
2022/08/02 00:44:43;;;;;;;2.45;0.65;;;;;21.00;101722.00;;;;5051080;28;20572;-77
2022/08/02 00:47:11;;;;;;;2.33;0.68;;;;;21.00;101719.00;;;;5051174;28;20697;-77
2022/08/02 00:49:38;;;;;;;0.80;0.50;;;;;21.00;101719.00;;;;5050805;28;20558;-77
2022/08/02 00:52:05;;;;;;;1.00;0.70;;;;;21.00;101717.00;;;;5050546;28;20183;-77
2022/08/02 00:54:33;;;;;;;3.85;0.80;;;;;21.00;101719.00;;;;5049828;28;20207;-77
2022/08/02 00:57:00;;;;;;;0.90;0.50;;;;;21.00;101720.00;;;;5050173;28;20595;-77
2022/08/02 00:59:29;;;;;;;1.15;0.55;;;;;20.90;101716.00;;;;5047404;28;20208;-77
2022/08/02 01:01:56;;;;;;;1.58;0.85;;;;;20.90;101722.00;;;;5049877;28;20234;-77
2022/08/02 01:04:23;;;;;;;2.15;0.45;;;;;20.90;101715.00;;;;5049898;28;20200;-77
2022/08/02 01:06:50;;;;;;;1.77;0.60;;;;;20.90;101708.00;;;;5049077;28;20220;-77
2022/08/02 01:09:18;;;;;;;1.02;0.65;;;;;20.90;101699.00;;;;5050114;28;20199;-77
2022/08/02 01:11:45;;;;;;;2.97;0.75;;;;;20.80;101703.00;;;;5049678;28;20200;-77
2022/08/02 01:14:15;;;;;;;2.30;0.93;;;;;20.80;101706.00;;;;5050039;28;20210;-77
2022/08/02 01:16:50;;;;;;;0.75;0.50;;;;;20.80;101703.00;;;;5049257;28;20226;-77
2022/08/02 01:19:32;;;;;;;2.22;0.77;;;;;20.70;101691.00;;;;5048987;28;20199;-77
2022/08/02 01:22:13;;;;;;;3.47;0.50;;;;;20.70;101696.00;;;;5049990;28;20239;-77
2022/08/02 01:25:07;;;;;;;2.25;0.70;;;;;20.60;101699.00;;;;5049466;28;20211;-77
2022/08/02 01:27:43;;;;;;;2.15;0.50;;;;;20.70;101689.00;;;;5049389;28;20196;-77
2022/08/02 01:30:12;;;;;;;0.85;0.50;;;;;20.70;101682.00;;;;5049946;28;20256;-77
2022/08/02 01:32:46;;;;;;;0.88;0.50;;;;;20.70;101683.00;;;;5048301;28;20196;-77
2022/08/02 01:35:17;;;;;;;2.50;0.70;;;;;20.70;101680.00;;;;5036687;28;20688;-77
2022/08/02 01:37:49;;;;;;;1.20;0.40;;;;;20.70;101680.00;;;;5049282;28;20203;-77
2022/08/02 01:40:22;;;;;;;2.67;0.77;;;;;20.70;101681.00;;;;5049104;28;20188;-77
2022/08/02 01:42:52;;;;;;;2.95;0.60;;;;;20.70;101684.00;;;;5049082;28;20251;-77
2022/08/02 01:45:22;;;;;;;1.50;0.73;;;;;20.70;101682.00;;;;5049080;28;20203;-77
2022/08/02 01:47:51;;;;;;;1.30;0.63;;;;;20.70;101688.00;;;;5048933;28;20191;-77
2022/08/02 01:50:23;;;;;;;1.50;0.80;;;;;20.70;101682.00;;;;5042027;28;20200;-77
2022/08/02 01:52:53;;;;;;;0.70;0.68;;;;;20.70;101681.00;;;;5042321;28;20199;-77
2022/08/02 01:55:23;;;;;;;1.00;0.55;;;;;20.70;101684.00;;;;5049468;28;20214;-77
2022/08/02 01:57:52;;;;;;;1.15;0.70;;;;;20.70;101690.00;;;;5041098;28;20226;-77
2022/08/02 02:00:24;;;;;;;2.78;0.85;;;;;20.70;101685.00;;;;5048788;28;20939;-77
2022/08/02 02:02:55;;;;;;;1.33;0.85;;;;;20.70;101683.00;;;;5049122;28;20732;-77
2022/08/02 02:05:24;;;;;;;2.10;1.05;;;;;20.70;101678.00;;;;5049129;28;20183;-77
2022/08/02 02:07:55;;;;;;;3.22;1.00;;;;;20.70;101682.00;;;;5038815;28;20208;-77
2022/08/02 02:10:27;;;;;;;2.20;0.93;;;;;20.70;101682.00;;;;5048175;28;20229;-77
2022/08/02 02:12:56;;;;;;;2.70;1.05;;;;;20.70;101679.00;;;;5048282;28;20195;-77
2022/08/02 02:15:26;;;;;;;1.80;0.80;;;;;20.70;101679.00;;;;5048793;28;20210;-77
2022/08/02 02:17:56;;;;;;;2.00;0.57;;;;;20.80;101671.00;;;;5048578;28;20187;-77
2022/08/02 02:20:24;;;;;;;1.90;0.73;;;;;20.80;101670.00;;;;5048695;28;20246;-77
2022/08/02 02:22:52;;;;;;;0.80;0.80;;;;;20.80;101675.00;;;;5049303;28;20231;-77
2022/08/02 02:25:21;;;;;;;2.67;0.75;;;;;20.80;101672.00;;;;5035898;28;20208;-77
2022/08/02 02:27:55;;;;;;;2.97;0.90;;;;;20.80;101663.00;;;;5048909;28;20211;-77
2022/08/02 02:30:26;;;;;;;0.95;0.60;;;;;20.80;101658.00;;;;5049017;28;20199;-77
2022/08/02 02:32:57;;;;;;;1.45;0.80;;;;;20.80;101664.00;;;;5049148;28;20188;-77
2022/08/02 02:35:28;;;;;;;1.15;0.93;;;;;20.80;101661.00;;;;5048282;28;20202;-78
2022/08/02 02:37:59;;;;;;;2.13;0.98;;;;;20.80;101660.00;;;;5048480;28;20581;-78
2022/08/02 02:40:28;;;;;;;1.15;0.75;;;;;20.80;101662.00;;;;5048010;28;20238;-78
2022/08/02 02:42:58;;;;;;;1.90;0.93;;;;;20.80;101653.00;;;;5048363;28;20219;-78
2022/08/02 02:45:28;;;;;;;6.95;1.30;;;;;20.80;101646.00;;;;5048292;28;20188;-78
2022/08/02 02:47:56;;;;;;;1.00;0.80;;;;;20.80;101647.00;;;;5048121;28;20202;-78
2022/08/02 02:50:25;;;;;;;2.78;0.90;;;;;20.80;101644.00;;;;5047271;28;20195;-78
2022/08/02 02:52:54;;;;;;;3.53;0.77;;;;;20.80;101639.00;;;;5048529;28;20206;-78
2022/08/02 02:55:22;;;;;;;3.58;1.13;;;;;20.90;101640.00;;;;5048031;28;20200;-78
2022/08/02 02:57:50;;;;;;;4.22;0.93;;;;;20.90;101648.00;;;;5044657;28;20242;-78
2022/08/02 03:01:26;;;;;;;4.32;1.50;;;;;20.90;101645.00;;;;5046710;28;20195;-78
2022/08/02 03:03:07;;;;;;;1.60;0.90;;;;;20.90;101642.00;;;;5034136;28;20234;-78
2022/08/02 03:05:34;;;;;;;3.70;1.17;;;;;21.00;101650.00;;;;5047880;28;20210;-78
2022/08/02 03:08:02;;;;;;;3.75;1.40;;;;;21.00;101638.00;;;;5047744;28;20199;-78
2022/08/02 03:10:29;;;;;;;1.48;1.20;;;;;21.00;101642.00;;;;5047328;28;20199;-78
2022/08/02 03:12:57;;;;;;;3.15;1.20;;;;;21.00;101647.00;;;;5048070;28;20195;-78
2022/08/02 03:15:28;;;;;;;3.05;1.20;;;;;21.00;101642.00;;;;5039408;28;20207;-78
2022/08/02 03:17:55;;;;;;;2.10;0.90;;;;;21.10;101644.00;;;;5041433;28;20199;-78
2022/08/02 03:20:24;;;;;;;2.25;0.90;;;;;21.10;101646.00;;;;5047176;28;20207;-78
2022/08/02 03:22:51;;;;;;;2.28;1.30;;;;;21.10;101640.00;;;;5047183;28;20211;-78
2022/08/02 03:25:19;;;;;;;2.42;0.93;;;;;21.20;101649.00;;;;5047920;28;20199;-78
2022/08/02 03:27:46;;;;;;;1.33;1.00;;;;;21.20;101640.00;;;;5047404;28;20692;-79
2022/08/02 03:30:15;;;;;;;1.95;0.98;;;;;21.20;101638.00;;;;5047669;28;20191;-78
2022/08/02 03:32:45;;;;;;;2.72;0.98;;;;;21.20;101642.00;;;;5037790;28;20204;-78
2022/08/02 03:35:16;;;;;;;7.13;1.15;;;;;21.20;101634.00;;;;5043046;28;20203;-78
2022/08/02 03:37:46;;;;;;;3.03;1.50;;;;;21.20;101626.00;;;;5046908;28;20206;-76
2022/08/02 03:40:14;;;;;;;2.40;0.88;;;;;21.30;101628.00;;;;5047849;28;20226;-76
2022/08/02 03:42:42;;;;;;;4.68;1.02;;;;;21.30;101620.00;;;;5047514;28;20314;-76
2022/08/02 03:45:12;;;;;;;2.70;1.48;;;;;21.30;101618.00;;;;5047166;28;20198;-77
2022/08/02 03:47:40;;;;;;;3.50;1.10;;;;;21.30;101614.00;;;;5042594;28;20756;-77
2022/08/02 03:50:11;;;;;;;1.50;1.00;;;;;21.30;101613.00;;;;5034251;28;20208;-77
2022/08/02 03:52:40;;;;;;;1.23;0.80;;;;;21.30;101609.00;;;;5045692;28;20301;-77
2022/08/02 03:55:10;;;;;;;3.10;1.75;;;;;21.30;101605.00;;;;5048243;28;20211;-77
2022/08/02 03:57:38;;;;;;;3.08;1.13;;;;;21.40;101612.00;;;;5047441;28;20239;-77
2022/08/02 04:00:07;;;;;;;3.90;1.20;;;;;21.40;101615.00;;;;5047143;28;20196;-77
2022/08/02 04:02:35;;;;;;;1.95;1.00;;;;;21.40;101613.00;;;;5045788;28;20692;-77
2022/08/02 04:05:02;;;;;;;2.00;0.85;;;;;21.40;101612.00;;;;5047789;28;20607;-78
2022/08/02 04:07:29;;;;;;;2.47;1.20;;;;;21.40;101613.00;;;;5040720;28;20226;-77
2022/08/02 04:09:57;;;;;;;2.70;1.20;;;;;21.40;101615.00;;;;5047219;28;20196;-77
2022/08/02 04:12:25;;;;;;;2.65;0.98;;;;;21.40;101613.00;;;;5047311;28;20207;-77
2022/08/02 04:14:53;;;;;;;1.58;1.05;;;;;21.40;101613.00;;;;5046872;28;20208;-77
2022/08/02 04:17:22;;;;;;;1.67;1.00;;;;;21.30;101615.00;;;;5046951;28;20678;-77
2022/08/02 04:19:54;;;;;;;3.60;1.13;;;;;21.30;101618.00;;;;5047334;28;20200;-77
2022/08/02 04:22:25;;;;;;;1.77;1.17;;;;;21.30;101619.00;;;;5047270;28;20711;-77
2022/08/02 04:24:58;;;;;;;1.90;0.88;;;;;21.30;101608.00;;;;5047026;28;20700;-77
2022/08/02 04:27:28;;;;;;;2.25;1.00;;;;;21.40;101616.00;;;;5046936;28;20576;-77
2022/08/02 04:29:55;;;;;;;1.63;1.10;;;;;21.40;101613.00;;;;5047644;28;20200;-77
2022/08/02 04:32:23;;;;;;;4.82;1.15;;;;;21.40;101618.00;;;;5047506;28;20576;-77
2022/08/02 04:34:50;;;;;;;1.63;1.25;;;;;21.40;101618.00;;;;5047467;28;20196;-76
2022/08/02 04:37:18;;;;;;;2.50;1.25;;;;;21.40;101621.00;;;;5045870;28;20830;-77
2022/08/02 04:39:45;;;;;;;3.08;1.15;;;;;21.30;101625.00;;;;5046869;28;20204;-77
2022/08/02 04:42:21;;;;;;;2.15;1.20;;;;;21.20;101617.00;;;;5041939;28;20693;-77
2022/08/02 04:44:51;;;;;;;1.73;1.23;;;;;21.30;101614.00;;;;5051503;28;20206;-77
2022/08/02 04:47:19;;;;;;;1.60;0.98;;;;;21.30;101607.00;;;;5050509;28;20187;-77
2022/08/02 04:49:46;;;;;;;2.13;1.17;;;;;21.30;101605.00;;;;5050372;28;20674;-77
2022/08/02 04:52:14;;;;;;;3.47;1.50;;;;;21.30;101604.00;;;;5051150;28;20199;-77
2022/08/02 04:54:41;;;;;;;2.28;1.60;;;;;21.30;101603.00;;;;5050883;28;20192;-77
2022/08/02 04:59:51;;;;;;;3.72;1.63;;;;;21.30;101607.00;;;;5045907;28;20683;-77
2022/08/02 05:02:18;;;;;;;3.08;1.40;;;;;21.30;101602.00;;;;5050023;28;20573;-78
2022/08/02 05:04:45;;;;;;;3.08;1.50;;;;;21.30;101603.00;;;;5051599;28;20207;-78
2022/08/02 05:07:13;;;;;;;3.83;2.15;;;;;21.30;101593.00;;;;5051064;28;20195;-77
2022/08/02 05:09:40;;;;;;;1.77;1.25;;;;;21.40;101596.00;;;;5032054;28;20204;-77
2022/08/02 05:12:08;;;;;;;2.75;1.58;;;;;21.40;101582.00;;;;5036073;28;20195;-77
2022/08/02 05:14:35;;;;;;;2.08;1.38;;;;;21.40;101584.00;;;;5049055;28;20196;-77
2022/08/02 05:17:04;;;;;;;2.17;1.08;;;;;21.40;101590.00;;;;5049528;28;20211;-77
2022/08/02 05:19:31;;;;;;;3.22;1.48;;;;;21.50;101583.00;;;;5049335;28;20191;-77
2022/08/02 05:21:58;;;;;;;2.83;1.70;;;;;21.50;101590.00;;;;5050242;28;20207;-77
2022/08/02 05:24:25;;;;;;;4.65;1.27;;;;;21.50;101581.00;;;;5049890;28;20227;-77
2022/08/02 05:26:53;;;;;;;2.30;1.15;;;;;21.60;101582.00;;;;5050367;28;20218;-77
2022/08/02 05:29:21;;;;;;;3.13;1.50;;;;;21.60;101584.00;;;;5048884;28;20203;-77
2022/08/02 05:31:48;;;;;;;1.48;1.38;;;;;21.60;101582.00;;;;5044389;28;20284;-77
2022/08/02 05:34:17;;;;;;;1.90;1.35;;;;;21.60;101583.00;;;;5038428;28;20200;-78
2022/08/02 05:36:44;;;;;;;2.10;1.70;;;;;21.70;101589.00;;;;5048781;28;20206;-78
2022/08/02 05:39:12;;;;;;;3.78;1.85;;;;;21.70;101601.00;;;;5049317;28;20219;-77
2022/08/02 05:41:39;;;;;;;1.92;1.60;;;;;21.80;101599.00;;;;5049709;28;20210;-77
2022/08/02 05:44:06;;;;;;;4.25;1.65;;;;;21.80;101596.00;;;;5049176;28;20227;-77
2022/08/02 05:46:34;;;;;;;3.17;1.42;;;;;21.90;101598.00;;;;5049038;28;20206;-77
2022/08/02 05:49:02;;;;;;;6.10;1.67;;;;;22.00;101603.00;;;;5046694;28;20208;-77
2022/08/02 05:51:36;;;;;;;2.88;2.10;;;;;22.00;101604.00;;;;5047535;28;20749;-77
2022/08/02 05:54:19;;;;;;;3.25;1.90;;;;;22.00;101597.00;;;;5049163;28;20210;-77
2022/08/02 05:56:50;;;;;;;2.50;2.00;;;;;22.20;101598.00;;;;5049510;28;20223;-77
2022/08/02 05:59:27;;;;;;;6.50;2.30;;;;;22.20;101597.00;;;;5048245;28;20223;-77
2022/08/02 06:01:59;;;;;;;3.90;3.00;;;;;22.30;101597.00;;;;5048403;28;20717;-77
2022/08/02 06:04:33;;;;;;;4.28;2.15;;;;;22.40;101590.00;;;;5048596;28;20234;-77
2022/08/02 06:07:05;;;;;;;2.75;2.10;;;;;22.40;101592.00;;;;5029628;28;20211;-77
2022/08/02 06:09:34;;;;;;;5.63;2.58;;;;;22.50;101595.00;;;;5033786;28;20318;-77
2022/08/02 06:12:05;;;;;;;2.90;2.13;;;;;22.50;101594.00;;;;5048989;28;20204;-77
2022/08/02 06:14:33;;;;;;;4.38;2.47;;;;;22.50;101589.00;;;;5048801;28;20267;-77
2022/08/02 06:17:03;;;;;;;4.85;2.42;;;;;22.60;101584.00;;;;5048696;28;20211;-77
2022/08/02 06:19:31;;;;;;;5.10;1.88;;;;;22.60;101579.00;;;;5034654;28;20206;-77
2022/08/02 06:22:13;;;;;;;6.00;2.20;;;;;22.70;101595.00;;;;5043468;28;20749;-77
2022/08/02 06:24:44;;;;;;;4.40;2.60;;;;;22.80;101591.00;;;;5039186;28;20223;-77
2022/08/02 06:27:13;;;;;;;3.33;2.67;;;;;22.90;101577.00;;;;5043598;28;20195;-77
2022/08/02 06:29:42;;;;;;;3.55;2.10;;;;;23.00;101585.00;;;;5046434;28;20203;-77
2022/08/02 06:32:10;;;;;;;3.85;2.28;;;;;23.00;101587.00;;;;5034394;28;20262;-78
2022/08/02 06:34:38;;;;;;;3.13;2.00;;;;;23.10;101594.00;;;;5045116;28;20210;-77
2022/08/02 06:37:14;;;;;;;3.35;2.60;;;;;23.10;101596.00;;;;5039080;28;20234;-77
2022/08/02 06:39:46;;;;;;;3.72;2.25;;;;;23.20;101590.00;;;;5038336;28;20617;-77
2022/08/02 06:42:15;;;;;;;3.45;2.78;;;;;23.30;101594.00;;;;5039325;28;20199;-77
2022/08/02 06:44:43;;;;;;;4.72;2.75;;;;;23.40;101598.00;;;;5048252;28;20226;-78
2022/08/02 06:47:10;;;;;;;3.95;2.90;;;;;23.50;101589.00;;;;5040409;28;20686;-77
2022/08/02 06:49:38;;;;;;;5.28;2.83;;;;;23.60;101574.00;;;;5033690;28;20464;-78
2022/08/02 06:52:06;;;;;;;4.43;2.80;;;;;23.70;101569.00;;;;5048080;28;20692;-78
2022/08/02 06:54:34;;;;;;;3.92;3.50;;;;;23.80;101564.00;;;;5047741;28;20199;-77
2022/08/02 06:57:03;;;;;;;4.13;2.55;;;;;23.90;101569.00;;;;5033878;28;20235;-78
2022/08/02 06:59:30;;;;;;;4.05;2.95;;;;;24.00;101569.00;;;;5032307;28;20684;-77
2022/08/02 07:01:58;;;;;;;3.00;2.70;;;;;24.10;101568.00;;;;5047967;28;20195;-78
2022/08/02 07:04:25;;;;;;;7.65;4.07;;;;;24.20;101561.00;;;;5046464;28;20264;-78
2022/08/02 07:06:54;;;;;;;4.45;2.90;;;;;24.30;101555.00;;;;5048210;28;20199;-78
2022/08/02 07:09:21;;;;;;;4.35;2.95;;;;;24.40;101566.00;;;;5047251;28;20199;-77
2022/08/02 07:11:48;;;;;;;4.00;2.80;;;;;24.60;101558.00;;;;5047682;28;20206;-78
2022/08/02 07:14:17;;;;;;;5.03;3.58;;;;;24.70;101558.00;;;;5035767;28;20207;-78
2022/08/02 07:16:44;;;;;;;5.32;3.47;;;;;24.80;101561.00;;;;5047646;28;20200;-77
2022/08/02 07:19:11;;;;;;;4.45;3.47;;;;;24.90;101565.00;;;;5047565;28;20203;-77
2022/08/02 07:21:39;;;;;;;6.43;3.70;;;;;25.00;101558.00;;;;5047618;28;20235;-78
2022/08/02 07:24:06;;;;;;;5.05;3.95;;;;;25.00;101556.00;;;;5047631;28;20582;-77
2022/08/02 07:26:33;;;;;;;6.65;3.50;;;;;25.10;101560.00;;;;5047420;28;20211;-78
2022/08/02 07:29:01;;;;;;;8.80;3.83;;;;;25.20;101561.00;;;;5047581;28;20207;-77
2022/08/02 07:31:30;;;;;;;4.22;3.63;;;;;25.30;101574.00;;;;5030504;28;20212;-77
2022/08/02 07:33:57;;;;;;;6.97;3.95;;;;;25.50;101571.00;;;;5046559;28;20196;-77
2022/08/02 07:36:25;;;;;;;6.30;3.65;;;;;25.60;101568.00;;;;5047591;28;20202;-77
2022/08/02 07:38:52;;;;;;;6.95;4.85;;;;;25.60;101571.00;;;;5047742;28;20207;-78
2022/08/02 07:41:19;;;;;;;5.90;3.53;;;;;25.70;101562.00;;;;5047504;28;20874;-77
2022/08/02 07:43:46;;;;;;;10.27;4.20;;;;;25.80;101559.00;;;;5047933;28;20223;-77
2022/08/02 07:46:14;;;;;;;7.13;4.00;;;;;25.90;101553.00;;;;5043574;28;20244;-77
2022/08/02 07:48:42;;;;;;;6.93;4.35;;;;;26.00;101543.00;;;;5038659;28;20204;-78
2022/08/02 07:51:10;;;;;;;7.03;4.10;;;;;26.10;101551.00;;;;5028343;28;20219;-77
2022/08/02 07:53:37;;;;;;;5.80;4.28;;;;;26.20;101551.00;;;;5043657;28;20202;-77
2022/08/02 07:56:04;;;;;;;5.63;4.00;;;;;26.30;101551.00;;;;5046596;28;20210;-77
2022/08/02 07:58:32;;;;;;;8.88;5.15;;;;;26.40;101542.00;;;;5046668;28;20694;-78
2022/08/02 08:00:59;;;;;;;5.35;4.07;;;;;26.50;101551.00;;;;5047381;28;20244;-78
2022/08/02 08:03:26;;;;;;;5.18;3.95;;;;;26.60;101543.00;;;;5045978;28;20688;-77
2022/08/02 08:05:55;;;;;;;8.02;4.20;;;;;26.80;101535.00;;;;5046441;28;20397;-78
2022/08/02 08:08:22;;;;;;;5.32;4.20;;;;;26.90;101541.00;;;;5047200;28;20700;-77
2022/08/02 08:10:49;;;;;;;11.57;3.95;;;;;27.00;101549.00;;;;5047119;28;20196;-78
2022/08/02 08:13:17;;;;;;;4.78;3.08;;;;;27.10;101549.00;;;;5047043;28;20198;-77
2022/08/02 08:15:44;;;;;;;4.57;3.58;;;;;27.20;101551.00;;;;5049600;28;20692;-77
2022/08/02 08:18:11;;;;;;;4.55;3.50;;;;;27.30;101548.00;;;;5050972;28;20199;-78
2022/08/02 08:20:39;;;;;;;3.10;2.75;;;;;27.30;101547.00;;;;5048793;28;20203;-78
2022/08/02 08:23:07;;;;;;;3.42;2.45;;;;;27.40;101549.00;;;;5042070;28;20196;-77
2022/08/02 08:25:35;;;;;;;3.08;2.80;;;;;27.50;101553.00;;;;5050396;28;20249;-77
2022/08/02 08:28:02;;;;;;;4.40;2.90;;;;;27.60;101561.00;;;;5050466;28;20756;-77
2022/08/02 08:30:29;;;;;;;2.67;2.10;;;;;27.60;101553.00;;;;5050029;28;20199;-77
2022/08/02 08:32:56;;;;;;;4.10;2.38;;;;;27.70;101556.00;;;;5050254;28;20214;-77
2022/08/02 08:35:23;;;;;;;3.45;2.65;;;;;27.80;101547.00;;;;5050331;28;20200;-77
2022/08/02 08:37:51;;;;;;;3.25;2.35;;;;;27.90;101543.00;;;;5047459;28;20215;-77
2022/08/02 08:40:19;;;;;;;2.70;1.77;;;;;28.00;101550.00;;;;5047765;28;20192;-77
2022/08/02 08:42:47;;;;;;;2.20;1.73;;;;;28.10;101549.00;;;;5050564;28;20196;-77
2022/08/02 08:45:15;;;;;;;2.47;2.03;;;;;28.20;101553.00;;;;5050880;28;20229;-77
2022/08/02 08:47:47;;;;;;;2.10;1.70;;;;;28.30;101553.00;;;;5050286;28;20202;-78
2022/08/02 08:50:19;;;;;;;3.95;2.50;;;;;28.30;101543.00;;;;5049326;28;20210;-78
2022/08/02 08:52:50;;;;;;;4.15;1.80;;;;;28.40;101544.00;;;;5050461;28;20202;-78
2022/08/02 08:55:23;;;;;;;2.50;1.90;;;;;28.50;101545.00;;;;5042393;28;20204;-78
2022/08/02 08:57:50;;;;;;;2.67;2.33;;;;;28.60;101538.00;;;;5043692;28;20268;-77
2022/08/02 09:00:18;;;;;;;3.40;1.92;;;;;28.70;101542.00;;;;5049611;28;20198;-78
2022/08/02 09:02:46;;;;;;;2.50;1.95;;;;;28.80;101549.00;;;;5049773;28;20203;-78
2022/08/02 09:05:15;;;;;;;3.60;2.28;;;;;28.80;101555.00;;;;5050017;28;20597;-77
2022/08/02 09:07:43;;;;;;;2.95;2.63;;;;;28.90;101545.00;;;;5031043;28;20209;-78
2022/08/02 09:10:38;;;;;;;4.57;3.40;;;;;28.90;101548.00;;;;5030462;28;20204;-78
2022/08/02 09:13:15;;;;;;;4.20;2.95;;;;;29.00;101560.00;;;;5040293;28;20196;-78
2022/08/02 09:15:44;;;;;;;4.88;3.20;;;;;29.10;101548.00;;;;5049675;28;20273;-78
2022/08/02 09:18:12;;;;;;;5.15;2.45;;;;;29.20;101559.00;;;;5049820;28;20203;-78
2022/08/02 09:20:53;;;;;;;6.25;3.55;;;;;29.20;101560.00;;;;5049855;28;20195;-77
2022/08/02 09:23:21;;;;;;;3.00;2.28;;;;;29.30;101555.00;;;;5049554;28;20206;-77
2022/08/02 09:25:58;;;;;;;3.63;3.05;;;;;29.40;101562.00;;;;5048015;28;20223;-77
2022/08/02 09:28:30;;;;;;;4.43;3.13;;;;;29.50;101553.00;;;;5048961;28;20203;-77
2022/08/02 09:31:02;;;;;;;4.78;3.10;;;;;29.60;101557.00;;;;5037168;28;20214;-78
2022/08/02 09:33:30;;;;;;;4.03;2.63;;;;;29.80;101557.00;;;;5049011;28;20531;-78
2022/08/02 09:36:03;;;;;;;4.13;2.95;;;;;29.80;101557.00;;;;5049696;28;20196;-77
2022/08/02 09:38:31;;;;;;;3.72;2.53;;;;;30.00;101558.00;;;;5048805;28;20196;-77
2022/08/02 09:41:01;;;;;;;3.22;2.17;;;;;30.10;101553.00;;;;5049780;28;20191;-77
2022/08/02 09:43:39;;;;;;;3.85;2.70;;;;;30.20;101557.00;;;;5048847;28;20682;-78
2022/08/02 09:46:15;;;;;;;3.80;2.55;;;;;30.30;101568.00;;;;5044904;28;20224;-78
2022/08/02 09:48:53;;;;;;;3.55;2.75;;;;;30.40;101562.00;;;;5048958;28;20665;-78
2022/08/02 09:51:26;;;;;;;6.05;2.83;;;;;30.40;101564.00;;;;5049150;28;20203;-78
2022/08/02 09:53:55;;;;;;;3.33;2.38;;;;;30.50;101565.00;;;;5049849;28;20202;-77
2022/08/02 09:56:25;;;;;;;3.92;2.70;;;;;30.50;101564.00;;;;5048523;28;20816;-78
2022/08/02 09:58:54;;;;;;;4.20;2.63;;;;;30.60;101564.00;;;;5049439;28;20207;-77
2022/08/02 10:01:30;;;;;;;4.15;2.88;;;;;30.50;101559.00;;;;5048759;28;20210;-78
2022/08/02 10:03:59;;;;;;;3.00;2.40;;;;;30.50;101568.00;;;;5036983;28;20596;-77
2022/08/02 10:06:27;;;;;;;3.55;2.15;;;;;30.50;101569.00;;;;5039192;28;20207;-78
2022/08/02 10:08:55;;;;;;;3.47;2.05;;;;;30.50;101573.00;;;;5049227;28;20196;-78
2022/08/02 10:11:26;;;;;;;2.35;2.00;;;;;30.50;101575.00;;;;5049006;28;20211;-78
2022/08/02 10:13:55;;;;;;;2.60;1.90;;;;;30.60;101570.00;;;;5049295;28;20202;-78
2022/08/02 10:16:23;;;;;;;4.30;1.92;;;;;30.70;101573.00;;;;5048869;28;20195;-77
2022/08/02 10:18:51;;;;;;;2.20;2.00;;;;;30.70;101565.00;;;;5049888;28;20640;-77
2022/08/02 10:21:23;;;;;;;3.03;1.73;;;;;30.70;101571.00;;;;5043848;28;20204;-77
2022/08/02 10:23:51;;;;;;;3.33;1.98;;;;;30.70;101566.00;;;;5048060;28;20321;-77
2022/08/02 10:26:22;;;;;;;2.60;1.95;;;;;30.70;101572.00;;;;5048818;28;20216;-77
2022/08/02 10:28:51;;;;;;;2.15;1.95;;;;;30.70;101558.00;;;;5049712;28;20192;-77
2022/08/02 10:31:23;;;;;;;3.67;1.77;;;;;30.70;101565.00;;;;5048458;28;20203;-77
2022/08/02 10:33:53;;;;;;;2.33;1.88;;;;;30.70;101560.00;;;;5048625;28;20192;-78
2022/08/02 10:36:26;;;;;;;5.10;1.70;;;;;30.80;101557.00;;;;5048504;28;20208;-78
2022/08/02 10:38:57;;;;;;;1.70;1.40;;;;;30.80;101542.00;;;;5047855;28;20756;-77
2022/08/02 10:41:49;;;;;;;2.40;1.40;;;;;30.80;101556.00;;;;5048066;28;20227;-78
2022/08/02 10:44:26;;;;;;;5.70;1.63;;;;;30.80;101557.00;;;;5047685;28;20207;-77
2022/08/02 10:47:18;;;;;;;3.83;1.90;;;;;31.00;101554.00;;;;5048775;28;20199;-77
2022/08/02 10:49:50;;;;;;;1.63;1.25;;;;;30.90;101554.00;;;;5047785;28;20200;-78
2022/08/02 10:52:17;;;;;;;1.20;1.05;;;;;31.00;101561.00;;;;5047076;28;20248;-76
2022/08/02 10:54:51;;;;;;;1.38;1.20;;;;;30.90;101550.00;;;;5047707;28;20195;-77
2022/08/02 10:57:22;;;;;;;1.55;1.45;;;;;30.90;101552.00;;;;5047117;28;20232;-78
2022/08/02 10:59:51;;;;;;;1.85;1.13;;;;;31.00;101546.00;;;;5047734;28;20210;-78
2022/08/02 11:02:36;;;;;;;1.35;1.08;;;;;30.90;101528.00;;;;5047029;28;20204;-77
2022/08/02 11:05:15;;;;;;;1.80;1.30;;;;;30.90;101537.00;;;;5042978;28;20230;-78
2022/08/02 11:07:45;;;;;;;1.75;1.30;;;;;31.10;101543.00;;;;5048113;28;20199;-78
2022/08/02 11:10:33;;;;;;;2.90;1.13;;;;;31.00;101540.00;;;;5048027;28;20678;-78
2022/08/02 11:13:05;;;;;;;1.88;1.23;;;;;31.10;101552.00;;;;5028954;28;20215;-78
2022/08/02 11:15:57;;;;;;;1.75;1.13;;;;;31.00;101543.00;;;;5031985;28;20200;-77
2022/08/02 11:19:07;;;;;;;1.90;1.10;;;;;31.10;101526.00;;;;5028159;28;20257;-77
2022/08/02 11:21:35;;;;;;;1.48;1.23;;;;;31.20;101528.00;;;;5047327;28;20207;-77
2022/08/02 11:24:26;;;;;;;1.05;0.80;;;;;31.20;101538.00;;;;5048695;28;20195;-77
2022/08/02 11:26:55;;;;;;;1.10;0.82;;;;;31.30;101538.00;;;;5047975;28;20195;-78
2022/08/02 11:29:33;;;;;;;1.00;0.90;;;;;31.30;101534.00;;;;5031623;28;20203;-77
2022/08/02 11:32:00;;;;;;;1.30;0.80;;;;;31.40;101544.00;;;;5045153;28;20688;-78
2022/08/02 11:34:28;;;;;;;3.08;1.00;;;;;31.50;101533.00;;;;5047284;28;20203;-78
2022/08/02 11:36:55;;;;;;;1.38;0.93;;;;;31.50;101524.00;;;;5048421;28;20202;-77
2022/08/02 11:39:23;;;;;;;1.45;0.95;;;;;31.60;101532.00;;;;5047820;28;20569;-78
2022/08/02 11:41:51;;;;;;;1.23;1.10;;;;;31.70;101530.00;;;;5047737;28;20211;-77
2022/08/02 11:44:19;;;;;;;1.88;1.00;;;;;31.70;101537.00;;;;5047445;28;20200;-78
2022/08/02 11:46:56;;;;;;;1.67;1.20;;;;;31.70;101545.00;;;;5042892;28;20226;-78
2022/08/02 11:49:24;;;;;;;1.40;1.30;;;;;31.80;101536.00;;;;5048085;28;20195;-76
2022/08/02 11:51:53;;;;;;;2.25;1.23;;;;;31.80;101543.00;;;;5051764;28;20195;-77
2022/08/02 11:54:28;;;;;;;1.92;0.95;;;;;31.80;101539.00;;;;5051474;28;20203;-77
2022/08/02 11:56:55;;;;;;;4.88;0.90;;;;;31.90;101526.00;;;;5046976;28;20218;-77
2022/08/02 11:59:22;;;;;;;1.10;1.00;;;;;32.00;101533.00;;;;5051726;28;20211;-77
2022/08/02 12:01:50;;;;;;;2.80;0.95;;;;;32.00;101527.00;;;;5048926;28;20210;-77
2022/08/02 12:04:20;;;;;;;0.88;0.77;;;;;32.00;101517.00;;;;5039550;28;20195;-77
2022/08/02 12:06:58;;;;;;;1.20;1.00;;;;;32.00;101523.00;;;;5050029;28;20230;-78
2022/08/02 12:09:27;;;;;;;1.98;0.90;;;;;32.10;101530.00;;;;5050777;28;20205;-77
2022/08/02 12:11:56;;;;;;;0.70;0.70;;;;;32.10;101529.00;;;;5050965;28;20222;-77
2022/08/02 12:14:24;;;;;;;1.10;0.88;;;;;32.10;101528.00;;;;5051052;28;20196;-77
2022/08/02 12:19:39;;;;;;;1.17;0.70;;;;;32.20;101527.00;;;;5041274;28;20338;-77
2022/08/02 12:22:12;;;;;;;0.47;0.40;;;;;32.20;101518.00;;;;5048128;28;20582;-77
2022/08/02 12:24:41;;;;;;;1.30;1.00;;;;;32.30;101527.00;;;;5035463;28;20579;-77
2022/08/02 12:27:08;;;;;;;2.83;1.00;;;;;32.30;101527.00;;;;5050461;28;20278;-76